Snodland, United Kingdom
Current Conditions -  °F | °C
As of 8:20 PM on Monday 24 Nov 2014 (Local Time) from EGKB Reporting Station
Light Fog Light Fog  
Wind Chill: 41°   Ceiling: Unl
Heat Index: 41°   Visibility: 6mi
Dew Point: 39°   Wind: 0mph
Humidity: 93%   Direction: NA
Pressure: 30.33"   Gusts: NA
Location:  51.33°N, 0.44°E
Report Text: EGKB 242020Z 00000KT 9999 BCFG NSC 05/04 Q1027
Loading
Personal Weather Stations






























Interactive Weather Map New forecast layout! Learn more

10-Day Weather Forecast

Advertisements
Track Severe Weather on mobile